createdAt,value
2023-03-06T00:01:23.940Z,95.99
2023-03-06T00:06:23.941Z,95.98
2023-03-06T00:11:23.941Z,95.98
2023-03-06T00:16:23.929Z,95.97
2023-03-06T00:21:29.531Z,95.97
2023-03-06T00:26:23.968Z,95.95
2023-03-06T00:31:23.943Z,95.94
2023-03-06T00:36:23.943Z,95.95
2023-03-06T00:41:24.259Z,95.94
2023-03-06T00:46:23.946Z,95.94
2023-03-06T00:51:23.933Z,95.93
2023-03-06T00:56:24.102Z,95.92
2023-03-06T01:01:23.946Z,95.91
2023-03-06T01:06:23.946Z,95.9
2023-03-06T01:11:35.440Z,95.9
2023-03-06T01:16:23.936Z,95.89
2023-03-06T01:21:24.096Z,95.89
2023-03-06T01:26:23.991Z,95.88
2023-03-06T01:31:24.294Z,95.88
2023-03-06T01:36:23.949Z,95.87
2023-03-06T01:41:23.939Z,95.87
2023-03-06T01:46:23.951Z,95.86
2023-03-06T01:51:23.940Z,95.85
2023-03-06T01:56:29.542Z,95.85
2023-03-06T02:01:24.016Z,95.85
2023-03-06T02:06:23.953Z,95.84
2023-03-06T02:11:23.954Z,95.84
2023-03-06T02:16:23.944Z,95.84
2023-03-06T02:21:23.955Z,95.83
2023-03-06T02:26:23.944Z,95.83
2023-03-06T02:31:23.957Z,95.82
2023-03-06T02:36:24.139Z,95.81
2023-03-06T02:41:29.780Z,95.8
2023-03-06T02:46:23.959Z,95.79
2023-03-06T02:51:23.946Z,95.79
2023-03-06T02:56:23.967Z,95.78
2023-03-06T03:01:23.979Z,95.78
2023-03-06T03:06:23.968Z,95.77
2023-03-06T03:11:23.961Z,95.77
2023-03-06T03:16:23.949Z,95.77
2023-03-06T03:21:23.963Z,95.77
2023-03-06T03:26:23.950Z,95.76
2023-03-06T03:31:24.239Z,95.77
2023-03-06T03:36:23.963Z,95.76
2023-03-06T03:41:23.964Z,95.76
2023-03-06T03:46:24.333Z,95.75
2023-03-06T03:51:23.953Z,95.75
2023-03-06T03:56:23.966Z,95.75
2023-03-06T04:01:24.289Z,95.75
2023-03-06T04:06:24.001Z,95.74
2023-03-06T04:11:23.966Z,95.73
2023-03-06T04:16:23.968Z,95.73
2023-03-06T04:21:23.969Z,95.73
2023-03-06T04:26:23.957Z,95.72
2023-03-06T04:31:23.968Z,95.72
2023-03-06T04:36:24.116Z,95.71
2023-03-06T04:41:24.111Z,95.71
2023-03-06T04:46:23.971Z,95.7
2023-03-06T04:51:24.105Z,95.7
2023-03-06T04:56:23.973Z,95.7
2023-03-06T05:01:24.106Z,95.7
2023-03-06T05:06:29.560Z,95.7
2023-03-06T05:11:23.974Z,95.7
2023-03-06T05:16:23.973Z,95.7
2023-03-06T05:21:23.975Z,95.7
2023-03-06T05:26:24.149Z,95.7
2023-03-06T05:31:23.977Z,95.7
2023-03-06T05:36:23.965Z,95.7
2023-03-06T05:41:24.154Z,95.7
2023-03-06T05:46:23.977Z,95.69
2023-03-06T05:51:29.554Z,95.7
2023-03-06T05:56:23.979Z,95.69
2023-03-06T06:01:24.098Z,95.69
2023-03-06T06:06:23.979Z,95.69
2023-03-06T06:11:23.981Z,95.69
2023-03-06T06:16:23.979Z,95.69
2023-03-06T06:21:23.982Z,95.69
2023-03-06T06:26:24.050Z,95.69
2023-03-06T06:31:23.982Z,95.69
2023-03-06T06:36:23.970Z,95.69
2023-03-06T06:41:29.571Z,95.69
2023-03-06T06:46:29.569Z,95.69
2023-03-06T06:51:23.972Z,95.69
2023-03-06T06:56:24.230Z,95.69
2023-03-06T07:01:24.135Z,95.7
2023-03-06T07:06:23.985Z,95.7
2023-03-06T07:11:24.034Z,95.69
2023-03-06T07:16:24.301Z,95.7
2023-03-06T07:21:23.988Z,95.7
2023-03-06T07:26:23.976Z,95.7
2023-03-06T07:31:29.577Z,95.7
2023-03-06T07:36:23.977Z,95.7
2023-03-06T07:41:23.990Z,95.7
2023-03-06T07:46:23.989Z,95.7
2023-03-06T07:51:24.018Z,95.71
2023-03-06T07:56:24.164Z,95.7
2023-03-06T08:01:24.145Z,95.71
2023-03-06T08:06:24.246Z,95.71
2023-03-06T08:11:23.981Z,95.71
2023-03-06T08:16:23.994Z,95.72
2023-03-06T08:21:29.581Z,95.72
2023-03-06T08:26:23.983Z,95.72
2023-03-06T08:31:24.083Z,95.71
2023-03-06T08:36:24.047Z,95.71
2023-03-06T08:41:23.996Z,95.71
2023-03-06T08:46:23.996Z,95.71
2023-03-06T08:51:23.999Z,95.71
2023-03-06T08:56:24.195Z,95.72
2023-03-06T09:01:23.989Z,95.72
2023-03-06T09:06:24.106Z,95.72
2023-03-06T09:11:29.821Z,95.72
2023-03-06T09:16:24.001Z,95.72
2023-03-06T09:21:24.002Z,95.71
2023-03-06T09:26:23.990Z,95.72
2023-03-06T09:31:24.127Z,95.72
2023-03-06T09:36:23.992Z,95.72
2023-03-06T09:41:24.004Z,95.71
2023-03-06T09:46:24.004Z,95.71
2023-03-06T09:51:24.006Z,95.7
2023-03-06T09:56:24.315Z,95.71
2023-03-06T10:01:24.018Z,95.7
2023-03-06T10:06:24.073Z,95.7
2023-03-06T10:16:24.008Z,95.7
2023-03-06T10:21:24.198Z,95.7
2023-03-06T10:26:24.076Z,95.71
2023-03-06T10:31:24.014Z,95.7
2023-03-06T10:36:24.001Z,95.71
2023-03-06T10:41:24.014Z,95.71
2023-03-06T10:46:24.003Z,95.73
2023-03-06T10:51:24.015Z,95.73
2023-03-06T10:56:24.044Z,95.72
2023-03-06T11:01:24.091Z,95.72
2023-03-06T11:06:24.019Z,95.72
2023-03-06T11:11:24.006Z,95.71
2023-03-06T11:16:24.019Z,95.71
2023-03-06T11:21:24.020Z,95.71
2023-03-06T11:26:24.021Z,95.72
2023-03-06T11:31:24.022Z,95.72
2023-03-06T11:36:24.376Z,95.71
2023-03-06T11:41:24.024Z,95.71
2023-03-06T11:46:24.013Z,95.69
2023-03-06T11:51:24.116Z,95.7
2023-03-06T11:56:24.025Z,95.69
2023-03-06T12:01:24.015Z,95.69
2023-03-06T12:06:24.027Z,95.67
2023-03-06T12:11:24.130Z,95.67
2023-03-06T12:16:24.027Z,95.67
2023-03-06T12:21:24.018Z,95.66
2023-03-06T12:26:24.148Z,95.66
2023-03-06T12:41:36.019Z,95.65
2023-03-06T12:46:36.010Z,95.65
2023-03-06T12:51:26.763Z,95.63
2023-03-06T12:56:26.763Z,95.65
2023-03-06T13:01:26.754Z,95.65
2023-03-06T13:06:26.766Z,95.64
2023-03-06T13:11:26.755Z,95.64
2023-03-06T13:16:26.766Z,95.64
2023-03-06T13:21:26.768Z,95.64
2023-03-06T13:31:26.770Z,95.63
2023-03-06T13:36:26.760Z,95.63
2023-03-06T13:41:26.771Z,95.63
2023-03-06T13:46:26.761Z,95.63
2023-03-06T13:51:26.772Z,95.63
2023-03-06T13:56:26.774Z,95.62
2023-03-06T14:01:26.764Z,95.62
2023-03-06T14:06:26.775Z,95.61
2023-03-06T14:11:26.765Z,95.62
2023-03-06T14:16:26.776Z,95.62
2023-03-06T14:21:26.777Z,95.61
2023-03-06T14:26:26.778Z,95.61
2023-03-06T14:31:26.780Z,95.62
2023-03-06T14:36:26.770Z,95.61
2023-03-06T14:41:26.780Z,95.61
2023-03-06T14:46:26.771Z,95.6
2023-03-06T14:51:26.783Z,95.61
2023-03-06T14:56:26.784Z,95.61
2023-03-06T15:01:26.773Z,95.62
2023-03-06T15:06:26.785Z,95.61
2023-03-06T15:11:26.775Z,95.61
2023-03-06T15:16:26.786Z,95.61
2023-03-06T15:21:26.786Z,95.61
2023-03-06T15:26:26.788Z,95.62
2023-03-06T15:31:26.811Z,95.61
2023-03-06T15:36:26.779Z,95.61
2023-03-06T15:41:36.050Z,95.61
2023-03-06T15:46:26.779Z,95.6
2023-03-06T15:51:26.792Z,95.6
2023-03-06T15:56:26.792Z,95.6
2023-03-06T16:01:26.783Z,95.6
2023-03-06T16:06:26.793Z,95.6
2023-03-06T16:11:26.784Z,95.6
2023-03-06T16:16:26.796Z,95.6
2023-03-06T16:21:26.785Z,95.6
2023-03-06T16:26:26.798Z,95.6
2023-03-06T16:31:26.798Z,95.6
2023-03-06T16:36:26.788Z,95.6
2023-03-06T16:41:26.841Z,95.6
2023-03-06T16:46:26.789Z,95.61
2023-03-06T16:51:26.800Z,95.61
2023-03-06T16:56:26.802Z,95.62
2023-03-06T17:01:26.802Z,95.62
2023-03-06T17:06:26.803Z,95.62
2023-03-06T17:11:26.793Z,95.63
2023-03-06T17:16:26.804Z,95.64
2023-03-06T17:21:26.794Z,95.64
2023-03-06T17:26:26.805Z,95.65
2023-03-06T17:31:26.806Z,95.65
2023-03-06T17:36:26.797Z,95.66
2023-03-06T17:41:26.807Z,95.67
2023-03-06T17:46:26.798Z,95.68
2023-03-06T17:51:26.809Z,95.68
2023-03-06T17:56:26.809Z,95.68
2023-03-06T18:01:26.811Z,95.68
2023-03-06T18:06:26.811Z,95.69
2023-03-06T18:11:26.801Z,95.69
2023-03-06T18:16:26.813Z,95.69
2023-03-06T18:21:26.802Z,95.69
2023-03-06T18:26:26.862Z,95.68
2023-03-06T18:31:26.814Z,95.68
2023-03-06T18:36:26.816Z,95.68
2023-03-06T18:41:26.815Z,95.68
2023-03-06T18:46:26.805Z,95.68
2023-03-06T18:51:26.816Z,95.68
2023-03-06T18:56:26.806Z,95.68
2023-03-06T19:01:26.819Z,95.68
2023-03-06T19:06:26.818Z,95.68
2023-03-06T19:11:26.808Z,95.68
2023-03-06T19:16:26.820Z,95.68
2023-03-06T19:21:26.810Z,95.69
2023-03-06T19:26:26.821Z,95.68
2023-03-06T19:31:26.821Z,95.68
2023-03-06T19:36:26.823Z,95.68
2023-03-06T19:41:26.824Z,95.68
2023-03-06T19:46:26.812Z,95.68
2023-03-06T19:51:26.825Z,95.67
2023-03-06T19:56:26.814Z,95.67
2023-03-06T20:01:26.826Z,95.67
2023-03-06T20:06:26.826Z,95.67
2023-03-06T20:11:26.816Z,95.67
2023-03-06T20:16:26.828Z,95.67
2023-03-06T20:21:26.817Z,95.67
2023-03-06T20:26:26.828Z,95.67
2023-03-06T20:31:26.828Z,95.67
2023-03-06T20:36:26.830Z,95.66
2023-03-06T20:41:26.831Z,95.67
2023-03-06T20:46:26.820Z,95.67
2023-03-06T20:51:26.831Z,95.67
2023-03-06T20:56:26.821Z,95.67
2023-03-06T21:01:26.880Z,95.67
2023-03-06T21:06:26.833Z,95.66
2023-03-06T21:11:26.834Z,95.66
2023-03-06T21:16:26.835Z,95.66
2023-03-06T21:21:26.824Z,95.65
2023-03-06T21:26:26.835Z,95.65
2023-03-06T21:31:26.825Z,95.64
2023-03-06T21:36:26.836Z,95.64
2023-03-06T21:41:26.837Z,95.64
2023-03-06T21:46:26.826Z,95.63
2023-03-06T21:51:26.838Z,95.63
2023-03-06T21:56:26.828Z,95.62
2023-03-06T22:01:26.839Z,95.62
2023-03-06T22:06:26.840Z,95.62
2023-03-06T22:11:26.840Z,95.61
2023-03-06T22:16:26.842Z,95.61
2023-03-06T22:21:26.831Z,95.61
2023-03-06T22:26:26.842Z,95.61
2023-03-06T22:31:26.831Z,95.61
2023-03-06T22:36:26.844Z,95.6
2023-03-06T22:41:26.843Z,95.6
2023-03-06T22:46:26.834Z,95.61
2023-03-06T22:51:26.845Z,95.61
2023-03-06T22:56:26.835Z,95.6
2023-03-06T23:01:26.847Z,95.6
2023-03-06T23:06:26.846Z,95.59
2023-03-06T23:11:26.848Z,95.58
2023-03-06T23:16:26.847Z,95.59
2023-03-06T23:21:26.838Z,95.58
2023-03-06T23:26:36.107Z,95.58
2023-03-06T23:31:26.839Z,95.58
2023-03-06T23:36:26.849Z,95.58
2023-03-06T23:41:26.850Z,95.57
2023-03-06T23:46:26.841Z,95.57
2023-03-06T23:51:26.852Z,95.57
2023-03-06T23:56:26.842Z,95.57
